Wetterdaten: aktuell Dienstag, 07.07.2020 00:28
Datum Zeit Temp. A. Feuchte A. Luftdruck Regen Wind Richtung Richtung Taupunkt Windchill Windben
07.07.2020 00:28 12,3 C 72 % 1021,7 hPa 0,0 l/m 1,6 km/h (1 Bft) W-SW 247 7,4 C 12,3 C 4,8 km/h (1 Bft)
06.07.2020 23:28 12,4 C 71 % 1021,6 hPa 0,0 l/m 6,4 km/h (2 Bft) SW 225 7,3 C 12,4 C 9,7 km/h (2 Bft)
06.07.2020 22:28 13,9 C 67 % 1020,8 hPa 0,0 l/m 8,0 km/h (2 Bft) SW 225 7,9 C 12,9 C 9,7 km/h (2 Bft)
06.07.2020 21:28 14,4 C 66 % 1020,0 hPa 0,0 l/m 4,8 km/h (1 Bft) W-SW 247 8,1 C 14,4 C 8,0 km/h (2 Bft)
06.07.2020 20:28 16,0 C 60 % 1019,1 hPa 0,0 l/m 3,2 km/h (1 Bft) W 270 8,2 C 16,0 C 6,4 km/h (2 Bft)
06.07.2020 19:28 17,8 C 53 % 1018,0 hPa 0,0 l/m 9,7 km/h (2 Bft) N 360 8,1 C 16,3 C 16,1 km/h (3 Bft)
06.07.2020 18:28 18,8 C 52 % 1016,7 hPa 0,0 l/m 12,9 km/h (3 Bft) NW 315 8,7 C 16,4 C 20,9 km/h (4 Bft)
06.07.2020 17:28 19,9 C 63 % 1016,0 hPa 0,0 l/m 16,1 km/h (3 Bft) W-SW 247 12,6 C 16,9 C 19,3 km/h (3 Bft)
06.07.2020 16:28 19,6 C 64 % 1015,7 hPa 0,0 l/m 22,5 km/h (4 Bft) SW 225 12,6 C 15,2 C 29,0 km/h (5 Bft)
06.07.2020 15:28 17,8 C 76 % 1015,7 hPa 0,0 l/m 11,3 km/h (2 Bft) SW 225 13,5 C 15,7 C 16,1 km/h (3 Bft)
06.07.2020 14:28 15,0 C 71 % 1016,0 hPa 0,0 l/m 16,1 km/h (3 Bft) SW 225 9,8 C 10,8 C 19,3 km/h (3 Bft)
06.07.2020 13:28 17,0 C 59 % 1015,8 hPa 0,0 l/m 22,5 km/h (4 Bft) W 270 8,9 C 11,8 C 32,2 km/h (5 Bft)
06.07.2020 12:28 19,1 C 70 % 1014,8 hPa 0,0 l/m 8,0 km/h (2 Bft) W-SW 247 13,5 C 18,4 C 19,3 km/h (3 Bft)
06.07.2020 11:28 19,2 C 74 % 1014,6 hPa 0,0 l/m 6,4 km/h (2 Bft) W 270 14,4 C 19,2 C 11,3 km/h (2 Bft)
06.07.2020 10:28 18,4 C 80 % 1014,7 hPa 0,0 l/m 9,7 km/h (2 Bft) N-NW 337 14,9 C 17,0 C 14,5 km/h (3 Bft)
06.07.2020 09:28 23,0 C 67 % 1013,3 hPa 0,0 l/m 24,1 km/h (4 Bft) SW 225 16,5 C 19,6 C 41,8 km/h (6 Bft)
06.07.2020 08:28 22,7 C 71 % 1013,2 hPa 0,0 l/m 9,7 km/h (2 Bft) W-SW 247 17,2 C 21,7 C 14,5 km/h (3 Bft)
06.07.2020 07:28 20,8 C 76 % 1013,0 hPa 0,0 l/m 16,1 km/h (3 Bft) SW 225 16,4 C 18,0 C 20,9 km/h (4 Bft)
06.07.2020 06:28 18,4 C 85 % 1013,6 hPa 0,0 l/m 11,3 km/h (2 Bft) S-SW 202 15,8 C 16,4 C 14,5 km/h (3 Bft)
06.07.2020 05:28 15,4 C 90 % 1014,1 hPa 0,0 l/m 11,3 km/h (2 Bft) S-SW 202 13,8 C 13,0 C 12,9 km/h (3 Bft)
06.07.2020 04:28 15,6 C 90 % 1014,3 hPa 0,2 l/m 4,8 km/h (1 Bft) SW 225 14,0 C 15,6 C 6,4 km/h (2 Bft)
06.07.2020 03:28 15,2 C 91 % 1014,7 hPa 0,0 l/m 6,4 km/h (2 Bft) W-SW 247 13,7 C 15,2 C 6,4 km/h (2 Bft)
06.07.2020 02:28 15,4 C 89 % 1014,9 hPa 0,0 l/m 1,6 km/h (1 Bft) W-SW 247 13,6 C 15,4 C 3,2 km/h (1 Bft)
06.07.2020 01:28 15,9 C 90 % 1015,3 hPa 0,0 l/m 6,4 km/h (2 Bft) SW 225 14,3 C 15,9 C 8,0 km/h (2 Bft)
06.07.2020 01:00 16,3 C 87 % 1015,3 hPa 0,0 l/m 6,4 km/h (2 Bft) SW 225 14,1 C 16,3 C 8,0 km/h (2 Bft)
_ Min-Zeit 23:45 18:09 07:16 - 02:02 - - 13:33 14:20 00:12
Minimum _ 12,1 C 48 % 1013,0 hPa - 0,0 km/h (0 Bft) - - 6,7 C 10,2 C 0,0 km/h (0 Bft)
_ Max-Zeit 09:22 03:52 00:26 03:37 08:04 - - 07:46 08:28 09:24
Maximum _ 23,9 C 92 % 1021,8 hPa 0,2 l/m 32,2 km/h
SW (5 Bft)
- - 17,7 C 21,7 C 43,5 km/h
SW (6 Bft)
Durchschnitt _ 17,3 C 73 % 1016,0 hPa #0,2 l/m 10,3 km/h (2 Bft) SW - 12,2 C 15,8 C 14,7 km/h (3 Bft)